createdAt,value
2018-12-16T00:01:22.782Z,98271.94
2018-12-16T00:03:53.698Z,98270.13
2018-12-16T00:06:24.506Z,98260.86
2018-12-16T00:08:53.420Z,98257.85
2018-12-16T00:11:25.066Z,98254.91
2018-12-16T00:13:55.990Z,98261.05
2018-12-16T00:16:24.924Z,98244.70
2018-12-16T00:18:53.772Z,98251.78
2018-12-16T00:21:22.614Z,98257.36
2018-12-16T00:23:51.481Z,98261.34
2018-12-16T00:26:20.339Z,98259.01
2018-12-16T00:28:49.305Z,98256.27
2018-12-16T00:31:18.177Z,98254.20
2018-12-16T00:33:47.044Z,98253.55
2018-12-16T00:36:16.098Z,98246.51
2018-12-16T00:38:45.048Z,98244.95
2018-12-16T00:41:13.913Z,98243.56
2018-12-16T00:43:42.837Z,98241.72
2018-12-16T00:46:11.869Z,98236.58
2018-12-16T00:48:41.943Z,98241.23
2018-12-16T00:51:10.904Z,98235.64
2018-12-16T00:53:39.982Z,98226.23
2018-12-16T00:56:08.875Z,98222.64
2018-12-16T00:58:37.706Z,98216.32
2018-12-16T01:01:06.647Z,98213.31
2018-12-16T01:03:35.813Z,98201.17
2018-12-16T01:06:05.032Z,98197.55
2018-12-16T01:08:33.987Z,98194.63
2018-12-16T01:11:02.865Z,98192.70
2018-12-16T01:13:31.833Z,98189.11
2018-12-16T01:16:00.666Z,98197.72
2018-12-16T01:18:29.522Z,98190.20
2018-12-16T01:20:58.396Z,98189.78
2018-12-16T01:23:27.242Z,98173.32
2018-12-16T01:25:56.262Z,98173.80
2018-12-16T01:28:25.126Z,98169.70
2018-12-16T01:30:54.033Z,98162.20
2018-12-16T01:33:25.100Z,98157.73
2018-12-16T01:35:53.957Z,98149.65
2018-12-16T01:38:22.872Z,98150.01
2018-12-16T01:40:51.734Z,98153.11
2018-12-16T01:43:20.590Z,98156.91
2018-12-16T01:45:50.498Z,98157.23
2018-12-16T01:48:19.361Z,98152.91
2018-12-16T01:50:48.205Z,98143.80
2018-12-16T01:53:17.071Z,98145.64
2018-12-16T01:55:45.916Z,98144.90
2018-12-16T01:58:14.749Z,98146.67
2018-12-16T02:00:44.759Z,98145.57
2018-12-16T02:03:13.681Z,98145.93
2018-12-16T02:05:42.702Z,98142.98
2018-12-16T02:08:11.647Z,98139.00
2018-12-16T02:10:40.518Z,98125.57
2018-12-16T02:13:09.423Z,98121.92
2018-12-16T02:15:38.490Z,98123.53
2018-12-16T02:18:07.422Z,98125.49
2018-12-16T02:20:36.246Z,98114.48
2018-12-16T02:23:05.088Z,98097.52
2018-12-16T02:25:34.343Z,98096.27
2018-12-16T02:28:03.197Z,98096.10
2018-12-16T02:30:32.086Z,98096.55
2018-12-16T02:33:01.930Z,98095.75
2018-12-16T02:35:30.873Z,98092.45
2018-12-16T02:37:59.758Z,98095.81
2018-12-16T02:40:28.602Z,98090.39
2018-12-16T02:42:57.810Z,98094.13
2018-12-16T02:45:27.508Z,98084.81
2018-12-16T02:47:56.356Z,98086.28
2018-12-16T02:50:25.188Z,98083.28
2018-12-16T02:52:54.034Z,98075.06
2018-12-16T02:55:22.959Z,98076.22
2018-12-16T02:57:51.787Z,98070.22
2018-12-16T03:00:20.707Z,98067.34
2018-12-16T03:02:49.626Z,98059.77
2018-12-16T03:05:18.480Z,98053.91
2018-12-16T03:07:47.368Z,98045.67
2018-12-16T03:10:16.219Z,98038.03
2018-12-16T03:12:45.039Z,98027.87
2018-12-16T03:15:14.008Z,98011.61
2018-12-16T03:17:42.955Z,98002.06
2018-12-16T03:20:12.027Z,98002.42
2018-12-16T03:22:40.862Z,98004.38
2018-12-16T03:25:09.807Z,98008.02
2018-12-16T03:27:38.734Z,97998.81
2018-12-16T03:30:09.179Z,98006.19
2018-12-16T03:32:38.190Z,98009.22
2018-12-16T03:35:07.228Z,98006.81
2018-12-16T03:37:36.093Z,98008.30
2018-12-16T03:40:06.023Z,97990.98
2018-12-16T03:42:34.910Z,97986.27
2018-12-16T03:45:04.175Z,97980.02
2018-12-16T03:47:33.010Z,97992.09
2018-12-16T03:50:02.064Z,97993.64
2018-12-16T03:52:30.969Z,97992.42
2018-12-16T03:54:59.878Z,97998.58
2018-12-16T03:57:28.751Z,97987.88
2018-12-16T03:59:57.616Z,97990.41
2018-12-16T04:02:26.454Z,97974.92
2018-12-16T04:04:55.294Z,97975.78
2018-12-16T04:07:24.235Z,97980.92
2018-12-16T04:09:53.092Z,97984.75
2018-12-16T04:12:21.919Z,97972.32
2018-12-16T04:14:50.772Z,97968.20
2018-12-16T04:17:19.665Z,97958.48
2018-12-16T04:19:48.581Z,97957.11
2018-12-16T04:22:17.469Z,97952.52
2018-12-16T04:24:46.446Z,97948.64
2018-12-16T04:27:15.315Z,97954.51
2018-12-16T04:29:44.171Z,97957.73
2018-12-16T04:32:13.008Z,97965.89
2018-12-16T04:34:41.922Z,97967.31
2018-12-16T04:37:10.894Z,97967.11
2018-12-16T04:39:39.915Z,97970.55
2018-12-16T04:42:08.765Z,97967.89
2018-12-16T04:44:37.693Z,97963.33
2018-12-16T04:47:06.519Z,97953.48
2018-12-16T04:49:35.454Z,97953.45
2018-12-16T04:52:04.479Z,97943.23
2018-12-16T04:54:33.447Z,97937.56
2018-12-16T04:57:02.326Z,97937.80
2018-12-16T04:59:31.230Z,97928.11
2018-12-16T05:02:00.111Z,97925.09
2018-12-16T05:04:28.948Z,97917.94
2018-12-16T05:06:58.331Z,97911.14
2018-12-16T05:09:27.152Z,97891.52
2018-12-16T05:11:56.011Z,97882.90
2018-12-16T05:14:24.920Z,97886.73
2018-12-16T05:16:53.872Z,97882.43
2018-12-16T05:19:22.759Z,97874.94
2018-12-16T05:21:51.661Z,97869.31
2018-12-16T05:24:20.507Z,97884.30
2018-12-16T05:26:49.409Z,97888.80
2018-12-16T05:29:18.251Z,97895.13
2018-12-16T05:31:47.079Z,97898.06
2018-12-16T05:34:15.908Z,97900.41
2018-12-16T05:36:44.787Z,97901.73
2018-12-16T05:39:13.638Z,97895.55
2018-12-16T05:41:42.559Z,97895.97
2018-12-16T05:44:11.481Z,97893.64
2018-12-16T05:46:40.427Z,97888.62
2018-12-16T05:49:09.722Z,97884.99
2018-12-16T05:51:38.574Z,97893.81
2018-12-16T05:54:07.418Z,97897.41
2018-12-16T05:56:36.305Z,97897.42
2018-12-16T05:59:05.477Z,97894.27
2018-12-16T06:01:34.312Z,97896.23
2018-12-16T06:04:03.152Z,97891.77
2018-12-16T06:06:32.085Z,97902.14
2018-12-16T06:09:00.911Z,97895.79
2018-12-16T06:11:31.729Z,97898.24
2018-12-16T06:14:00.583Z,97909.74
2018-12-16T06:16:29.415Z,97904.84
2018-12-16T06:18:58.275Z,97906.31
2018-12-16T06:21:27.261Z,97902.12
2018-12-16T06:23:56.099Z,97903.81
2018-12-16T06:26:24.951Z,97910.53
2018-12-16T06:28:53.792Z,97903.93
2018-12-16T06:31:22.623Z,97894.16
2018-12-16T06:33:51.507Z,97882.94
2018-12-16T06:36:20.417Z,97882.86
2018-12-16T06:38:49.509Z,97876.19
2018-12-16T06:41:18.402Z,97891.03
2018-12-16T06:43:47.474Z,97892.56
2018-12-16T06:46:16.325Z,97894.09
2018-12-16T06:48:45.194Z,97896.47
2018-12-16T06:51:14.026Z,97902.81
2018-12-16T06:53:42.944Z,97908.41
2018-12-16T06:56:11.861Z,97910.62
2018-12-16T06:58:40.742Z,97909.65
2018-12-16T07:01:09.614Z,97898.91
2018-12-16T07:03:38.563Z,97896.59
2018-12-16T07:06:07.411Z,97890.24
2018-12-16T07:08:37.027Z,97889.27
2018-12-16T07:11:05.886Z,97876.05
2018-12-16T07:13:34.781Z,97876.44
2018-12-16T07:16:03.627Z,97873.81
2018-12-16T07:18:32.463Z,97881.88
2018-12-16T07:21:01.315Z,97880.44
2018-12-16T07:23:30.155Z,97882.36
2018-12-16T07:25:59.015Z,97887.09
2018-12-16T07:28:28.020Z,97887.77
2018-12-16T07:30:56.929Z,97885.13
2018-12-16T07:33:27.062Z,97885.72
2018-12-16T07:35:55.926Z,97881.14
2018-12-16T07:38:24.782Z,97882.11
2018-12-16T07:40:53.744Z,97883.28
2018-12-16T07:43:22.650Z,97882.73
2018-12-16T07:45:51.528Z,97882.66
2018-12-16T07:48:20.705Z,97873.64
2018-12-16T07:50:49.539Z,97874.40
2018-12-16T07:53:18.470Z,97879.55
2018-12-16T07:55:47.343Z,97874.48
2018-12-16T07:58:16.313Z,97873.55
2018-12-16T08:00:45.177Z,97882.94
2018-12-16T08:03:14.121Z,97880.02
2018-12-16T08:05:42.967Z,97871.77
2018-12-16T08:08:11.857Z,97871.56
2018-12-16T08:10:40.715Z,97870.02
2018-12-16T08:13:09.571Z,97888.23
2018-12-16T08:15:38.433Z,97904.14
2018-12-16T08:18:07.481Z,97911.64
2018-12-16T08:20:36.359Z,97922.86
2018-12-16T08:23:05.244Z,97924.84
2018-12-16T08:25:34.147Z,97917.39
2018-12-16T08:28:03.165Z,97898.52
2018-12-16T08:30:32.255Z,97890.58
2018-12-16T08:33:02.936Z,97882.19
2018-12-16T08:35:31.763Z,97881.92
2018-12-16T08:38:00.646Z,97887.88
2018-12-16T08:40:29.565Z,97874.50
2018-12-16T08:42:58.405Z,97861.75
2018-12-16T08:45:27.333Z,97863.84
2018-12-16T08:47:56.203Z,97857.25
2018-12-16T08:50:25.054Z,97860.23
2018-12-16T08:52:53.922Z,97857.81
2018-12-16T08:55:22.787Z,97853.02
2018-12-16T08:57:51.978Z,97856.50
2018-12-16T09:00:20.852Z,97860.55
2018-12-16T09:02:49.952Z,97860.83
2018-12-16T09:05:18.883Z,97869.92
2018-12-16T09:07:47.792Z,97868.31
2018-12-16T09:10:16.755Z,97865.39
2018-12-16T09:12:45.684Z,97868.86
2018-12-16T09:15:14.518Z,97869.67
2018-12-16T09:17:43.430Z,97864.34
2018-12-16T09:20:12.281Z,97849.16
2018-12-16T09:22:41.171Z,97846.78
2018-12-16T09:25:10.100Z,97847.58
2018-12-16T09:27:45.781Z,97836.33
2018-12-16T09:30:14.660Z,97833.09
2018-12-16T09:32:43.559Z,97837.13
2018-12-16T09:35:12.566Z,97853.42
2018-12-16T09:37:41.495Z,97849.68
2018-12-16T09:40:10.531Z,97844.87
2018-12-16T09:42:39.386Z,97835.50
2018-12-16T09:45:08.253Z,97832.03
2018-12-16T09:47:37.073Z,97819.22
2018-12-16T09:50:06.103Z,97830.44
2018-12-16T09:52:35.034Z,97821.61
2018-12-16T09:55:04.533Z,97823.20
2018-12-16T09:57:33.369Z,97815.98
2018-12-16T10:00:02.386Z,97800.44
2018-12-16T10:02:32.071Z,97805.73
2018-12-16T10:05:00.914Z,97803.08
2018-12-16T10:07:30.076Z,97797.80
2018-12-16T10:09:58.909Z,97811.63
2018-12-16T10:12:27.768Z,97802.77
2018-12-16T10:14:56.638Z,97802.80
2018-12-16T10:17:25.574Z,97804.30
2018-12-16T10:19:54.713Z,97789.41
2018-12-16T10:22:23.580Z,97791.55
2018-12-16T10:24:52.448Z,97795.86
2018-12-16T10:27:22.024Z,97781.97
2018-12-16T10:29:50.950Z,97782.44
2018-12-16T10:32:19.784Z,97791.08
2018-12-16T10:34:48.783Z,97786.82
2018-12-16T10:37:17.665Z,97789.49
2018-12-16T10:39:46.505Z,97793.23
2018-12-16T10:42:15.515Z,97791.33
2018-12-16T10:44:44.403Z,97803.67
2018-12-16T10:47:13.301Z,97794.02
2018-12-16T10:49:42.387Z,97785.96
2018-12-16T10:52:11.695Z,97798.74
2018-12-16T10:54:40.662Z,97790.73
2018-12-16T11:50:15.182Z,97770.97
2018-12-16T11:52:44.019Z,97760.34
2018-12-16T11:55:13.173Z,97755.66
2018-12-16T11:57:43.564Z,97749.56
2018-12-16T12:00:12.547Z,97747.03
2018-12-16T12:02:41.660Z,97744.34
2018-12-16T12:05:12.544Z,97745.69
2018-12-16T12:07:42.089Z,97743.81
2018-12-16T12:10:11.030Z,97745.19
2018-12-16T12:12:40.171Z,97754.05
2018-12-16T12:15:09.288Z,97751.31
2018-12-16T12:17:38.368Z,97750.92
2018-12-16T12:20:07.575Z,97755.83
2018-12-16T12:22:36.393Z,97756.75
2018-12-16T12:25:05.481Z,97753.45
2018-12-16T12:27:34.386Z,97749.17
2018-12-16T12:30:03.420Z,97762.19
2018-12-16T12:32:32.483Z,97760.36
2018-12-16T12:35:01.430Z,97767.83
2018-12-16T12:37:30.343Z,97756.38
2018-12-16T12:39:59.187Z,97767.96
2018-12-16T12:42:28.042Z,97760.77
2018-12-16T12:44:56.923Z,97763.48
2018-12-16T12:47:25.870Z,97767.77
2018-12-16T12:49:54.907Z,97759.02
2018-12-16T12:52:23.746Z,97761.16
2018-12-16T12:54:52.635Z,97771.83
2018-12-16T12:57:21.583Z,97767.83
2018-12-16T12:59:50.410Z,97768.09
2018-12-16T13:02:19.258Z,97763.49
2018-12-16T13:04:48.281Z,97767.59
2018-12-16T13:07:17.204Z,97768.05
2018-12-16T13:09:46.042Z,97761.39
2018-12-16T13:12:14.886Z,97765.41
2018-12-16T13:14:43.738Z,97762.45
2018-12-16T13:17:12.582Z,97770.52
2018-12-16T13:19:41.444Z,97771.31
2018-12-16T13:22:10.340Z,97763.58
2018-12-16T13:24:49.370Z,97771.60
2018-12-16T13:27:18.214Z,97769.45
2018-12-16T13:29:47.098Z,97771.09
2018-12-16T13:32:15.956Z,97768.13
2018-12-16T13:34:44.888Z,97776.63
2018-12-16T13:37:13.920Z,97765.42
2018-12-16T13:39:42.791Z,97770.19
2018-12-16T13:42:11.691Z,97774.81
2018-12-16T13:44:40.601Z,97775.89
2018-12-16T13:47:09.479Z,97781.48
2018-12-16T13:49:38.422Z,97781.50
2018-12-16T13:52:07.384Z,97772.40
2018-12-16T13:54:36.223Z,97786.33
2018-12-16T13:57:05.053Z,97783.13
2018-12-16T13:59:33.925Z,97779.13
2018-12-16T14:02:02.980Z,97778.84
2018-12-16T14:04:32.179Z,97800.23
2018-12-16T14:07:00.968Z,97798.63
2018-12-16T14:09:29.943Z,97790.11
2018-12-16T14:11:58.778Z,97804.02
2018-12-16T14:14:27.665Z,97811.48
2018-12-16T14:16:56.582Z,97806.94
2018-12-16T14:19:25.416Z,97804.30
2018-12-16T14:21:54.245Z,97818.98
2018-12-16T14:24:23.074Z,97817.91
2018-12-16T14:26:51.978Z,97819.25
2018-12-16T14:29:20.912Z,97813.10
2018-12-16T14:31:49.750Z,97818.19
2018-12-16T14:34:18.597Z,97814.19
2018-12-16T14:36:47.487Z,97818.98
2018-12-16T14:39:16.427Z,97825.41
2018-12-16T14:41:45.258Z,97832.08
2018-12-16T14:44:14.148Z,97825.94
2018-12-16T14:46:43.007Z,97828.88
2018-12-16T14:49:11.859Z,97838.77
2018-12-16T14:51:40.723Z,97837.70
2018-12-16T14:54:09.739Z,97841.17
2018-12-16T14:56:38.591Z,97844.91
2018-12-16T14:59:07.529Z,97844.37
2018-12-16T15:01:36.474Z,97844.13
2018-12-16T15:04:05.331Z,97842.25
2018-12-16T15:06:34.260Z,97843.55
2018-12-16T15:09:03.521Z,97838.77
2018-12-16T15:11:34.362Z,97836.87
2018-12-16T15:14:03.226Z,97852.64
2018-12-16T15:16:32.162Z,97854.77
2018-12-16T15:19:00.991Z,97848.63
2018-12-16T15:21:29.906Z,97856.64
2018-12-16T15:23:58.846Z,97857.97
2018-12-16T15:26:27.769Z,97859.05
2018-12-16T15:28:56.619Z,97861.45
2018-12-16T15:31:25.463Z,97866.52
2018-12-16T15:33:54.316Z,97872.66
2018-12-16T15:36:23.225Z,97879.88
2018-12-16T15:38:52.113Z,97871.06
2018-12-16T15:41:22.025Z,97872.66
2018-12-16T15:43:50.879Z,97876.67
2018-12-16T15:46:19.743Z,97880.67
2018-12-16T15:48:48.735Z,97870.52
2018-12-16T15:51:17.580Z,97869.73
2018-12-16T15:53:46.667Z,97871.06
2018-12-16T15:56:15.572Z,97877.99
2018-12-16T15:58:44.475Z,97873.46
2018-12-16T16:01:13.358Z,97881.73
2018-12-16T16:03:42.308Z,97890.83
2018-12-16T16:06:11.290Z,97890.55
2018-12-16T16:08:40.154Z,97889.22
2018-12-16T16:11:10.058Z,97894.33
2018-12-16T16:13:39.080Z,97899.41
2018-12-16T16:16:07.920Z,97895.66
2018-12-16T16:18:36.875Z,97887.92
2018-12-16T16:21:05.781Z,97899.10
2018-12-16T16:23:34.764Z,97902.31
2018-12-16T16:26:03.613Z,97904.97
2018-12-16T16:28:32.522Z,97903.10
2018-12-16T16:31:01.364Z,97906.84
2018-12-16T16:33:30.346Z,97912.19
2018-12-16T16:35:59.259Z,97909.25
2018-12-16T16:38:28.090Z,97904.74
2018-12-16T16:40:57.449Z,97904.21
2018-12-16T16:43:26.363Z,97910.63
2018-12-16T16:45:55.284Z,97909.28
2018-12-16T16:48:24.292Z,97913.78
2018-12-16T16:50:53.227Z,97922.11
2018-12-16T16:53:22.069Z,97921.86
2018-12-16T16:55:50.927Z,97927.73
2018-12-16T16:58:19.912Z,97927.47
2018-12-16T17:00:48.771Z,97923.74
2018-12-16T17:03:17.606Z,97927.98
2018-12-16T17:05:46.467Z,97926.38
2018-12-16T17:08:15.315Z,97922.64
2018-12-16T17:10:44.150Z,97920.23
2018-12-16T17:13:13.018Z,97923.45
2018-12-16T17:15:42.307Z,97929.85
2018-12-16T17:18:11.252Z,97936.52
2018-12-16T17:20:40.098Z,97942.91
2018-12-16T17:23:08.966Z,97939.47
2018-12-16T17:25:37.824Z,97949.09
2018-12-16T17:28:06.764Z,97941.61
2018-12-16T17:30:35.651Z,97945.88
2018-12-16T17:33:06.024Z,97950.95
2018-12-16T17:35:35.075Z,97965.65
2018-12-16T17:38:04.024Z,97959.23
2018-12-16T17:40:33.212Z,97962.98
2018-12-16T17:43:02.105Z,97960.58
2018-12-16T17:45:31.026Z,97950.43
2018-12-16T17:47:59.878Z,97949.36
2018-12-16T17:50:28.779Z,97953.36
2018-12-16T17:52:57.695Z,97954.44
2018-12-16T17:55:26.556Z,97950.70
2018-12-16T17:57:55.388Z,97953.37
2018-12-16T18:00:24.343Z,97952.30
2018-12-16T18:02:53.543Z,97944.82
2018-12-16T18:05:22.467Z,97950.15
2018-12-16T18:07:51.299Z,97945.34
2018-12-16T18:10:20.164Z,97953.09
2018-12-16T18:12:49.211Z,97941.88
2018-12-16T18:15:18.105Z,97947.48
2018-12-16T18:17:47.011Z,97956.84
2018-12-16T18:20:15.853Z,97955.51
2018-12-16T18:22:44.797Z,97943.48
2018-12-16T18:25:13.706Z,97944.82
2018-12-16T18:27:42.581Z,97950.96
2018-12-16T18:30:11.431Z,97957.38
2018-12-16T18:32:40.358Z,97965.16
2018-12-16T18:35:09.418Z,97957.95
2018-12-16T18:37:38.846Z,97968.13
2018-12-16T18:40:07.897Z,97956.06
2018-12-16T18:42:36.725Z,97965.97
2018-12-16T18:45:06.200Z,97955.00
2018-12-16T18:47:35.059Z,97957.14
2018-12-16T18:50:06.346Z,97948.03
2018-12-16T18:52:35.342Z,97962.48
2018-12-16T18:55:04.356Z,97948.06
2018-12-16T18:57:33.263Z,97956.31
2018-12-16T19:00:02.139Z,97960.63
2018-12-16T19:02:32.979Z,97960.05
2018-12-16T19:05:01.931Z,97965.13
2018-12-16T19:07:31.140Z,97963.83
2018-12-16T19:10:00.003Z,97951.27
2018-12-16T19:12:28.851Z,97934.16
2018-12-16T19:14:58.275Z,97947.26
2018-12-16T19:17:27.130Z,97956.34
2018-12-16T19:19:56.050Z,97954.47
2018-12-16T19:22:25.058Z,97954.47
2018-12-16T19:24:53.974Z,97946.98
2018-12-16T19:27:22.894Z,97958.48
2018-12-16T19:29:51.821Z,97959.55
2018-12-16T19:32:20.753Z,97959.02
2018-12-16T19:34:49.693Z,97969.97
2018-12-16T19:37:18.650Z,97965.16
2018-12-16T19:39:47.550Z,97967.53
2018-12-16T19:42:16.425Z,97968.91
2018-12-16T19:44:45.355Z,97970.51
2018-12-16T19:47:14.291Z,97970.51
2018-12-16T19:49:43.274Z,97963.28
2018-12-16T19:52:12.160Z,97973.98
2018-12-16T19:54:41.411Z,97972.66
2018-12-16T19:57:10.401Z,97976.67
2018-12-16T19:59:39.243Z,97967.84
2018-12-16T20:02:08.268Z,97974.78
2018-12-16T20:04:42.487Z,97976.12
2018-12-16T20:07:11.351Z,97973.73
2018-12-16T20:09:40.212Z,97975.34
2018-12-16T20:12:09.349Z,97983.88
2018-12-16T20:14:38.182Z,97975.32
2018-12-16T20:17:07.111Z,97974.52
2018-12-16T20:19:37.142Z,97964.91
2018-12-16T20:22:06.102Z,97963.82
2018-12-16T20:24:34.972Z,97963.55
2018-12-16T20:27:03.832Z,97963.55
2018-12-16T20:29:32.684Z,97959.01
2018-12-16T20:32:01.537Z,97969.97
2018-12-16T20:34:30.644Z,97974.53
2018-12-16T20:36:59.505Z,97976.41
2018-12-16T20:39:28.450Z,97977.72
2018-12-16T20:41:57.308Z,97979.86
2018-12-16T20:44:26.176Z,97991.89
2018-12-16T20:46:55.037Z,97996.16
2018-12-16T20:49:23.987Z,97979.59
2018-12-16T20:51:52.833Z,97989.48
2018-12-16T20:54:21.675Z,97982.80
2018-12-16T20:56:50.716Z,97996.70
2018-12-16T20:59:19.591Z,97992.16
2018-12-16T21:01:48.453Z,97992.42
2018-12-16T21:04:17.447Z,97988.69
2018-12-16T21:06:46.440Z,97987.61
2018-12-16T21:09:15.343Z,97994.05
2018-12-16T21:11:49.619Z,97994.59
2018-12-16T21:14:23.830Z,98003.38
2018-12-16T21:16:58.103Z,97997.23
2018-12-16T21:19:27.130Z,97996.97
2018-12-16T21:21:56.058Z,97992.69
2018-12-16T21:24:25.070Z,97992.16
2018-12-16T21:26:54.204Z,97999.91
2018-12-16T21:29:23.120Z,97999.41
2018-12-16T21:31:52.066Z,97993.76
2018-12-16T21:34:20.960Z,98006.33
2018-12-16T21:36:49.972Z,98006.05
2018-12-16T21:39:18.836Z,98016.22
2018-12-16T21:41:47.913Z,98019.69
2018-12-16T21:44:16.884Z,98012.20
2018-12-16T21:46:45.771Z,98014.08
2018-12-16T21:49:14.635Z,98008.73
2018-12-16T21:51:43.495Z,98020.49
2018-12-16T21:54:12.412Z,98008.20
2018-12-16T21:56:41.354Z,98022.63
2018-12-16T21:59:10.316Z,98018.36
2018-12-16T22:01:39.251Z,98022.36
2018-12-16T22:04:10.350Z,98028.78
2018-12-16T22:06:39.240Z,98025.57
2018-12-16T22:09:08.527Z,98024.23
2018-12-16T22:11:38.895Z,98014.64
2018-12-16T22:14:07.807Z,98018.12
2018-12-16T22:16:36.708Z,98013.30
2018-12-16T22:19:05.567Z,98020.26
2018-12-16T22:21:34.490Z,98031.45
2018-12-16T22:24:03.318Z,98032.83
2018-12-16T22:26:32.178Z,98028.81
2018-12-16T22:29:01.052Z,98031.75
2018-12-16T22:31:29.947Z,98037.37
2018-12-16T22:33:58.808Z,98033.89
2018-12-16T22:36:27.752Z,98036.83
2018-12-16T22:38:56.758Z,98038.17
2018-12-16T22:41:25.660Z,98032.82
2018-12-16T22:43:54.689Z,98020.25
2018-12-16T22:46:23.810Z,98021.05
2018-12-16T22:48:52.746Z,98025.33
2018-12-16T22:51:21.660Z,98023.73
2018-12-16T22:53:50.509Z,98020.79
2018-12-16T22:56:19.355Z,98012.50
2018-12-16T22:58:54.205Z,98014.36
2018-12-16T23:01:19.162Z,98009.56
2018-12-16T23:03:48.067Z,98010.63
2018-12-16T23:06:17.215Z,98003.94
2018-12-16T23:08:46.155Z,98001.80
2018-12-16T23:11:15.143Z,98009.81
2018-12-16T23:13:43.988Z,98010.08
2018-12-16T23:16:12.940Z,98015.16
2018-12-16T23:18:41.916Z,98016.77
2018-12-16T23:21:11.248Z,98009.81
2018-12-16T23:23:40.262Z,98010.08
2018-12-16T23:26:09.186Z,98018.91
2018-12-16T23:28:38.050Z,98019.45
2018-12-16T23:31:07.137Z,98018.38
2018-12-16T23:33:36.062Z,98022.13
2018-12-16T23:36:05.963Z,98027.47
2018-12-16T23:38:34.823Z,98027.20
2018-12-16T23:41:03.659Z,98018.64
2018-12-16T23:43:32.601Z,98026.66
2018-12-16T23:46:01.455Z,98024.52
2018-12-16T23:48:30.391Z,98028.27
2018-12-16T23:51:00.407Z,98027.47
2018-12-16T23:53:29.350Z,98032.30
2018-12-16T23:55:58.309Z,98024.77
2018-12-16T23:58:27.274Z,98025.03
